Time;durP1;ratioP1;P1;durP2;ratioP2;P2;SDS_P1;SDS_P2;PMS_P1;PMS_P2;Temp;Humidity;BMP_temperature;BMP_pressure;BME280_temperature;BME280_humidity;BME280_pressure;Samples;Min_cycle;Max_cycle;Signal;HPM_P1;HPM_P2
2022/01/29 00:01:56;;;;;;;21.50;3.63;;;3.70;99.90;;;;;;5209755;28;20176;-53
2022/01/29 00:04:26;;;;;;;18.50;4.77;;;3.70;99.90;;;;;;5207697;23;20294;-49
2022/01/29 00:06:57;;;;;;;17.00;5.10;;;3.70;99.90;;;;;;5188425;28;20216;-48
2022/01/29 00:09:27;;;;;;;13.07;3.80;;;3.80;99.90;;;;;;5191731;28;20209;-49
2022/01/29 00:11:58;;;;;;;15.30;3.80;;;3.80;99.90;;;;;;5186637;28;20191;-49
2022/01/29 00:14:28;;;;;;;23.73;4.77;;;3.80;99.90;;;;;;5166292;28;20200;-48
2022/01/29 00:16:59;;;;;;;23.93;5.10;;;3.90;99.90;;;;;;5185176;28;20598;-49
2022/01/29 00:19:29;;;;;;;16.33;3.90;;;3.80;99.90;;;;;;5182411;28;20272;-49
2022/01/29 00:22:03;;;;;;;23.63;5.20;;;3.90;99.90;;;;;;5181265;28;20193;-51
2022/01/29 00:24:34;;;;;;;8.17;3.30;;;3.80;99.90;;;;;;5185386;28;20221;-48
2022/01/29 00:27:09;;;;;;;23.87;3.93;;;3.80;99.90;;;;;;5184759;28;20497;-49
2022/01/29 00:29:42;;;;;;;24.43;5.17;;;3.90;99.90;;;;;;5185203;28;20445;-48
2022/01/29 00:32:12;;;;;;;9.80;3.30;;;3.80;99.90;;;;;;5184302;28;20443;-48
2022/01/29 00:34:43;;;;;;;18.27;4.07;;;3.80;99.90;;;;;;5185026;28;20456;-49
2022/01/29 00:37:14;;;;;;;19.20;4.03;;;3.80;99.90;;;;;;5185303;28;20447;-48
2022/01/29 00:39:44;;;;;;;15.13;3.23;;;3.90;99.90;;;;;;5185965;28;20187;-49
2022/01/29 00:42:15;;;;;;;25.50;4.10;;;3.80;99.90;;;;;;5185660;28;20182;-49
2022/01/29 00:44:46;;;;;;;13.33;3.90;;;3.80;99.90;;;;;;5186234;28;20212;-48
2022/01/29 00:47:16;;;;;;;29.83;3.90;;;3.80;99.90;;;;;;5187544;28;20599;-48
2022/01/29 00:49:47;;;;;;;25.43;5.90;;;3.80;99.90;;;;;;5182204;28;20216;-48
2022/01/29 00:52:18;;;;;;;23.37;5.57;;;3.80;99.90;;;;;;5188504;28;20706;-48
2022/01/29 00:54:48;;;;;;;20.03;4.20;;;3.80;99.90;;;;;;5194686;28;20204;-48
2022/01/29 00:57:19;;;;;;;26.37;4.83;;;3.90;99.90;;;;;;5193728;28;20205;-47
2022/01/29 00:59:49;;;;;;;19.10;5.00;;;3.90;99.90;;;;;;5193122;28;20248;-48
2022/01/29 01:02:20;;;;;;;25.03;5.20;;;3.90;99.90;;;;;;5192177;28;20185;-47
2022/01/29 01:04:51;;;;;;;18.33;4.30;;;3.90;99.90;;;;;;5190900;28;20212;-48
2022/01/29 01:07:21;;;;;;;12.83;3.43;;;3.90;99.90;;;;;;5172086;28;20227;-49
2022/01/29 01:09:52;;;;;;;15.73;4.40;;;3.90;99.90;;;;;;5192357;28;20194;-48
2022/01/29 01:12:23;;;;;;;7.60;4.20;;;3.90;99.90;;;;;;5173688;28;20197;-47
2022/01/29 01:14:53;;;;;;;35.03;6.17;;;3.90;99.90;;;;;;5189527;28;20596;-48
2022/01/29 01:17:24;;;;;;;22.07;5.90;;;3.90;99.90;;;;;;5189256;28;20189;-49
2022/01/29 01:19:54;;;;;;;16.17;4.40;;;3.90;99.90;;;;;;5188643;28;20197;-49
2022/01/29 01:22:25;;;;;;;25.60;4.67;;;3.90;99.90;;;;;;5188778;28;20184;-48
2022/01/29 01:24:55;;;;;;;20.53;4.83;;;3.90;99.90;;;;;;5189602;28;20219;-49
2022/01/29 01:27:26;;;;;;;10.50;3.50;;;3.90;99.90;;;;;;5189062;28;20199;-49
2022/01/29 01:29:56;;;;;;;17.40;3.70;;;3.90;99.90;;;;;;5188287;28;20197;-48
2022/01/29 01:32:27;;;;;;;25.47;4.43;;;3.90;99.90;;;;;;5187432;28;20190;-51
2022/01/29 01:35:08;;;;;;;11.80;3.80;;;3.90;99.90;;;;;;5186873;28;20205;-49
2022/01/29 01:37:48;;;;;;;18.10;3.97;;;4.00;99.90;;;;;;5170672;28;20211;-48
2022/01/29 01:40:20;;;;;;;33.17;4.60;;;4.00;99.90;;;;;;5187805;28;20446;-48
2022/01/29 01:42:58;;;;;;;13.40;5.53;;;4.00;99.90;;;;;;5187819;28;20412;-48
2022/01/29 01:45:29;;;;;;;14.77;3.83;;;4.00;99.90;;;;;;5186194;28;21080;-48
2022/01/29 01:48:03;;;;;;;11.67;4.00;;;4.10;99.90;;;;;;5170688;28;20436;-49
2022/01/29 01:50:35;;;;;;;11.17;4.00;;;4.00;99.90;;;;;;5169875;28;20230;-49
2022/01/29 01:53:06;;;;;;;16.77;4.40;;;4.10;99.90;;;;;;5188443;28;20439;-49
2022/01/29 01:55:37;;;;;;;13.83;4.50;;;4.00;99.90;;;;;;5170504;28;20448;-48
2022/01/29 01:58:08;;;;;;;26.60;4.27;;;4.00;99.90;;;;;;5187707;28;20915;-49
2022/01/29 02:00:39;;;;;;;16.40;3.90;;;3.90;99.90;;;;;;5171051;28;20428;-49
2022/01/29 02:03:10;;;;;;;16.20;5.07;;;4.00;99.90;;;;;;5167177;28;20271;-49
2022/01/29 02:05:41;;;;;;;7.63;3.20;;;3.90;99.90;;;;;;5170867;28;20553;-48
2022/01/29 02:08:13;;;;;;;11.17;3.90;;;3.90;99.90;;;;;;5185636;28;20424;-47
2022/01/29 02:10:46;;;;;;;16.40;4.17;;;4.00;99.90;;;;;;5169022;28;20180;-47
2022/01/29 02:13:17;;;;;;;16.83;3.77;;;3.90;99.90;;;;;;5188092;28;20470;-48
2022/01/29 02:15:48;;;;;;;28.17;4.57;;;3.90;99.90;;;;;;5188186;28;20449;-47
2022/01/29 02:18:18;;;;;;;18.60;5.40;;;3.80;99.90;;;;;;5188196;28;20187;-48
2022/01/29 02:20:49;;;;;;;10.20;3.10;;;3.80;99.90;;;;;;5188926;28;20258;-49
2022/01/29 02:23:20;;;;;;;16.70;4.43;;;3.90;99.90;;;;;;5186264;28;20614;-48
2022/01/29 02:25:51;;;;;;;16.33;4.60;;;3.80;99.90;;;;;;5188206;28;20506;-49
2022/01/29 02:28:24;;;;;;;31.10;5.37;;;3.80;99.90;;;;;;5187591;28;20188;-47
2022/01/29 02:31:03;;;;;;;17.33;4.53;;;3.80;99.90;;;;;;5189123;28;20466;-48
2022/01/29 02:33:37;;;;;;;15.40;4.77;;;3.70;99.90;;;;;;5187780;28;20488;-47
2022/01/29 02:36:08;;;;;;;14.83;4.60;;;3.70;99.90;;;;;;5169941;28;20430;-49
2022/01/29 02:38:38;;;;;;;14.90;4.10;;;3.60;99.90;;;;;;5170253;28;20411;-48
2022/01/29 02:41:09;;;;;;;24.00;4.60;;;3.60;99.90;;;;;;5187391;28;20252;-49
2022/01/29 02:46:29;;;;;;;15.37;4.93;;;3.60;99.90;;;;;;5187055;28;20629;-48
2022/01/29 02:49:00;;;;;;;18.13;4.90;;;3.70;99.90;;;;;;5186994;28;20470;-48
2022/01/29 02:51:31;;;;;;;14.73;3.87;;;3.70;99.90;;;;;;5172490;28;20458;-50
2022/01/29 02:54:01;;;;;;;17.73;4.27;;;3.70;99.90;;;;;;5188197;28;20204;-48
2022/01/29 02:56:32;;;;;;;24.13;5.10;;;3.60;99.90;;;;;;5188165;28;20223;-48
2022/01/29 02:59:02;;;;;;;13.70;3.43;;;3.50;99.90;;;;;;5187651;28;20223;-48
2022/01/29 03:01:33;;;;;;;21.10;4.57;;;3.50;99.90;;;;;;5187568;28;20604;-47
2022/01/29 03:04:04;;;;;;;19.50;4.50;;;3.40;99.90;;;;;;5184912;28;20729;-48
2022/01/29 03:06:35;;;;;;;16.10;4.40;;;3.40;99.90;;;;;;5169662;28;20181;-48
2022/01/29 03:09:06;;;;;;;20.43;4.17;;;3.30;99.90;;;;;;5187160;28;20419;-49
2022/01/29 03:11:37;;;;;;;20.50;5.20;;;3.30;99.90;;;;;;5183489;28;20434;-49
2022/01/29 03:14:07;;;;;;;12.60;4.23;;;3.30;99.90;;;;;;5152951;28;20208;-47
2022/01/29 03:16:38;;;;;;;12.53;3.60;;;3.30;99.90;;;;;;5169723;28;20260;-48
2022/01/29 03:19:08;;;;;;;22.10;4.67;;;3.30;99.90;;;;;;5187149;28;20523;-48
2022/01/29 03:21:39;;;;;;;13.47;3.97;;;3.30;99.90;;;;;;5187062;28;20180;-48
2022/01/29 03:24:09;;;;;;;26.03;4.83;;;3.30;99.90;;;;;;5167721;28;20216;-49
2022/01/29 03:26:40;;;;;;;15.13;5.33;;;3.20;99.90;;;;;;5169530;28;20181;-47
2022/01/29 03:29:10;;;;;;;21.97;4.70;;;3.20;99.90;;;;;;5168873;28;20192;-48
2022/01/29 03:31:41;;;;;;;18.10;4.83;;;3.20;99.90;;;;;;5187118;28;20187;-47
2022/01/29 03:34:11;;;;;;;21.60;4.80;;;3.30;99.90;;;;;;5185829;28;20684;-48
2022/01/29 03:36:42;;;;;;;27.50;4.90;;;3.30;99.90;;;;;;5187988;28;20267;-48
2022/01/29 03:39:12;;;;;;;14.43;4.50;;;3.20;99.90;;;;;;5187528;28;20207;-47
2022/01/29 03:41:43;;;;;;;27.07;5.90;;;3.20;99.90;;;;;;5170019;28;20204;-48
2022/01/29 03:44:13;;;;;;;20.17;4.70;;;3.20;99.90;;;;;;5185956;28;20275;-48
2022/01/29 03:46:45;;;;;;;11.43;5.33;;;3.20;99.90;;;;;;5150955;28;20188;-48
2022/01/29 03:49:15;;;;;;;20.63;5.83;;;3.20;99.90;;;;;;5185635;28;20172;-48
2022/01/29 03:51:46;;;;;;;14.73;5.00;;;3.20;99.90;;;;;;5185967;28;20538;-48
2022/01/29 03:54:16;;;;;;;15.63;5.53;;;3.20;99.90;;;;;;5168624;28;20714;-48
2022/01/29 03:56:47;;;;;;;13.20;4.83;;;3.10;99.90;;;;;;5170839;28;20695;-48
2022/01/29 03:59:17;;;;;;;10.90;4.60;;;3.20;99.90;;;;;;5185595;28;20187;-47
2022/01/29 04:01:48;;;;;;;12.20;5.67;;;3.20;99.90;;;;;;5186051;28;20199;-48
2022/01/29 04:04:18;;;;;;;11.20;4.70;;;3.10;99.90;;;;;;5184094;28;20239;-47
2022/01/29 04:06:50;;;;;;;18.00;5.90;;;3.20;99.90;;;;;;5185987;28;20235;-48
2022/01/29 04:09:21;;;;;;;10.93;6.23;;;3.20;99.90;;;;;;5185347;28;20596;-48
2022/01/29 04:11:52;;;;;;;21.57;5.87;;;3.20;99.90;;;;;;5168399;28;20459;-48
2022/01/29 04:14:22;;;;;;;26.27;7.10;;;3.20;99.90;;;;;;5165986;28;20494;-49
2022/01/29 04:16:53;;;;;;;24.00;6.80;;;3.20;99.90;;;;;;5185807;28;20660;-48
2022/01/29 04:19:23;;;;;;;27.40;7.40;;;3.20;99.90;;;;;;5185644;28;20671;-49
2022/01/29 04:21:54;;;;;;;20.73;6.50;;;3.20;99.90;;;;;;5167502;28;20184;-48
2022/01/29 04:24:24;;;;;;;20.43;7.60;;;3.20;99.90;;;;;;5185902;28;20208;-47
2022/01/29 04:26:55;;;;;;;18.47;6.37;;;3.20;99.90;;;;;;5184881;28;20216;-49
2022/01/29 04:29:29;;;;;;;27.57;7.60;;;3.20;99.90;;;;;;5184883;28;20208;-50
2022/01/29 04:32:08;;;;;;;29.80;7.37;;;3.20;99.90;;;;;;5169366;28;20274;-48
2022/01/29 04:34:39;;;;;;;15.47;5.63;;;3.20;99.90;;;;;;5185052;28;20463;-49
2022/01/29 04:37:09;;;;;;;28.13;9.10;;;3.20;99.90;;;;;;5185780;28;20506;-48
2022/01/29 04:39:39;;;;;;;39.57;8.40;;;3.20;99.90;;;;;;5186717;28;20180;-48
2022/01/29 04:42:10;;;;;;;26.80;7.33;;;3.20;99.90;;;;;;5186577;28;20199;-48
2022/01/29 04:44:41;;;;;;;23.70;8.60;;;3.20;99.90;;;;;;5168089;28;20215;-46
2022/01/29 04:47:11;;;;;;;12.43;6.77;;;3.20;99.90;;;;;;5185095;28;20180;-49
2022/01/29 04:49:41;;;;;;;22.93;8.10;;;3.20;99.90;;;;;;5184815;28;20187;-47
2022/01/29 04:52:12;;;;;;;26.57;7.93;;;3.20;99.90;;;;;;5184065;28;20619;-47
2022/01/29 04:54:43;;;;;;;22.33;8.03;;;3.20;99.90;;;;;;5168073;28;20215;-47
2022/01/29 04:57:13;;;;;;;32.30;10.23;;;3.20;99.90;;;;;;5185689;28;20234;-48
2022/01/29 04:59:44;;;;;;;25.07;9.23;;;3.20;99.90;;;;;;5186170;28;20192;-46
2022/01/29 05:02:14;;;;;;;21.03;9.40;;;3.20;99.90;;;;;;5185125;28;20207;-47
2022/01/29 05:04:45;;;;;;;24.23;9.00;;;3.20;99.90;;;;;;5184372;28;20433;-48
2022/01/29 05:07:15;;;;;;;30.03;9.13;;;3.20;99.90;;;;;;5169623;28;20184;-48
2022/01/29 05:09:46;;;;;;;21.37;9.13;;;3.20;99.90;;;;;;5168311;28;20620;-48
2022/01/29 05:12:23;;;;;;;18.20;8.50;;;3.20;99.90;;;;;;5166902;28;20264;-48
2022/01/29 05:28:59;;;;;;;30.60;9.50;;;3.30;99.90;;;;;;5185163;28;20467;-50
2022/01/29 05:31:30;;;;;;;26.93;9.80;;;3.30;99.90;;;;;;5184815;28;20435;-47
2022/01/29 05:34:01;;;;;;;33.70;11.80;;;3.20;99.90;;;;;;5151264;28;20204;-48
2022/01/29 05:36:31;;;;;;;21.13;8.97;;;3.30;99.90;;;;;;5183725;28;20188;-47
2022/01/29 05:39:04;;;;;;;26.07;10.03;;;3.30;99.90;;;;;;5187702;28;20525;-49
2022/01/29 05:41:34;;;;;;;18.87;8.60;;;3.20;99.90;;;;;;5187163;28;20190;-48
2022/01/29 05:44:05;;;;;;;22.40;10.50;;;3.20;99.90;;;;;;5187724;28;20471;-49
2022/01/29 05:46:35;;;;;;;20.77;10.57;;;3.30;99.90;;;;;;5188422;28;20184;-48
2022/01/29 05:49:06;;;;;;;22.00;11.30;;;3.20;99.90;;;;;;5186934;28;20248;-48
2022/01/29 05:51:36;;;;;;;23.73;11.00;;;3.20;99.90;;;;;;5171634;28;20191;-47
2022/01/29 05:54:07;;;;;;;23.53;10.50;;;3.20;99.90;;;;;;5151626;28;20282;-49
2022/01/29 05:56:38;;;;;;;29.60;11.33;;;3.30;99.90;;;;;;5187712;28;20180;-47
2022/01/29 05:59:08;;;;;;;20.00;9.77;;;3.20;99.90;;;;;;5189160;28;20188;-47
2022/01/29 06:01:39;;;;;;;26.17;9.57;;;3.20;99.90;;;;;;5185077;28;20212;-47
2022/01/29 06:04:09;;;;;;;29.03;11.10;;;3.20;99.90;;;;;;5202320;22;20227;-50
2022/01/29 06:06:40;;;;;;;22.33;9.30;;;3.20;99.90;;;;;;5215353;28;20183;-48
2022/01/29 06:09:10;;;;;;;33.50;11.67;;;3.20;99.90;;;;;;5212379;28;20168;-47
2022/01/29 06:11:41;;;;;;;33.43;11.00;;;3.20;99.90;;;;;;5214569;28;20225;-48
2022/01/29 06:14:12;;;;;;;27.13;12.27;;;3.20;99.90;;;;;;5214202;28;20675;-48
2022/01/29 06:16:43;;;;;;;31.40;13.20;;;3.30;99.90;;;;;;5203980;28;20188;-48
2022/01/29 06:19:13;;;;;;;28.07;11.27;;;3.30;99.90;;;;;;5200199;28;20505;-51
2022/01/29 06:21:44;;;;;;;34.50;12.77;;;3.20;99.90;;;;;;5202531;28;20651;-47
2022/01/29 06:24:14;;;;;;;25.33;12.33;;;3.20;99.90;;;;;;5204714;28;20212;-48
2022/01/29 06:26:45;;;;;;;29.07;13.00;;;3.20;99.90;;;;;;5206600;28;20188;-49
2022/01/29 06:29:15;;;;;;;19.43;12.27;;;3.30;99.90;;;;;;5205665;28;20254;-48
2022/01/29 06:31:49;;;;;;;40.73;13.90;;;3.30;99.90;;;;;;5206229;28;20180;-49
2022/01/29 06:34:19;;;;;;;26.83;12.40;;;3.30;99.90;;;;;;5205033;28;20196;-48
2022/01/29 06:36:50;;;;;;;31.20;13.60;;;3.30;99.90;;;;;;5207194;28;20525;-48
2022/01/29 06:39:20;;;;;;;39.37;16.07;;;3.30;99.90;;;;;;5206123;28;20182;-49
2022/01/29 06:41:51;;;;;;;27.60;14.60;;;3.30;99.90;;;;;;5198572;28;20722;-49
2022/01/29 06:44:21;;;;;;;35.50;14.27;;;3.30;99.90;;;;;;5212849;28;20207;-50
2022/01/29 06:46:52;;;;;;;34.27;14.60;;;3.30;99.90;;;;;;5204550;28;20191;-49
2022/01/29 06:49:22;;;;;;;31.97;14.30;;;3.20;99.90;;;;;;5203430;28;20176;-48
2022/01/29 06:51:53;;;;;;;39.67;16.20;;;3.30;99.90;;;;;;5200405;28;20302;-49
2022/01/29 06:54:24;;;;;;;32.60;16.30;;;3.30;99.90;;;;;;5206674;28;20263;-50
2022/01/29 06:56:55;;;;;;;42.30;17.83;;;3.30;99.90;;;;;;5204214;28;20521;-48
2022/01/29 06:59:25;;;;;;;43.87;19.03;;;3.30;99.90;;;;;;5202085;28;20207;-49
2022/01/29 07:01:56;;;;;;;51.53;18.77;;;3.30;99.90;;;;;;5203328;28;20202;-49
2022/01/29 07:04:26;;;;;;;39.80;17.40;;;3.30;99.90;;;;;;5204230;28;20216;-48
2022/01/29 07:06:57;;;;;;;64.17;20.03;;;3.40;99.90;;;;;;5205820;28;20552;-49
2022/01/29 07:09:27;;;;;;;45.17;17.73;;;3.50;99.90;;;;;;5188753;28;20180;-49
2022/01/29 07:12:07;;;;;;;31.63;15.57;;;3.40;99.90;;;;;;5197559;28;20188;-50
2022/01/29 07:14:39;;;;;;;53.13;16.23;;;3.50;99.90;;;;;;5200821;28;20250;-48
2022/01/29 07:17:13;;;;;;;31.43;16.10;;;3.40;99.90;;;;;;5203251;28;20442;-48
2022/01/29 07:19:45;;;;;;;52.27;19.00;;;3.40;99.90;;;;;;5205299;28;20532;-48
2022/01/29 07:22:16;;;;;;;38.53;18.50;;;3.40;99.90;;;;;;5206542;28;20422;-50
2022/01/29 07:24:48;;;;;;;46.20;16.20;;;3.50;99.90;;;;;;5207888;28;20553;-48
2022/01/29 07:27:18;;;;;;;39.60;19.10;;;3.50;99.90;;;;;;5205176;28;20911;-48
2022/01/29 07:29:49;;;;;;;42.73;19.37;;;3.50;99.90;;;;;;5206135;28;20450;-49
2022/01/29 07:32:19;;;;;;;34.30;18.97;;;3.60;99.90;;;;;;5206003;28;20175;-47
2022/01/29 07:34:50;;;;;;;55.37;18.90;;;3.50;99.90;;;;;;5205998;28;20204;-49
2022/01/29 07:37:20;;;;;;;56.17;19.70;;;3.60;99.90;;;;;;5205881;28;20577;-48
2022/01/29 07:39:51;;;;;;;36.90;18.03;;;3.60;99.90;;;;;;5202724;28;20180;-49
2022/01/29 07:42:24;;;;;;;42.00;21.17;;;3.60;99.90;;;;;;5207006;28;20211;-48
2022/01/29 07:44:54;;;;;;;51.33;20.30;;;3.60;99.90;;;;;;5205674;28;20612;-49
2022/01/29 07:47:25;;;;;;;26.67;15.13;;;3.60;99.90;;;;;;5205633;28;20430;-49
2022/01/29 07:49:55;;;;;;;39.93;16.80;;;3.60;99.90;;;;;;5202759;28;20307;-49
2022/01/29 07:52:27;;;;;;;36.00;18.10;;;3.70;99.90;;;;;;5204020;28;20539;-49
2022/01/29 07:54:57;;;;;;;39.53;18.23;;;3.70;99.90;;;;;;5205825;28;20314;-50
2022/01/29 07:57:28;;;;;;;44.40;19.63;;;3.70;99.90;;;;;;5201657;28;20438;-48
2022/01/29 07:59:58;;;;;;;42.00;19.70;;;3.70;99.90;;;;;;5200656;28;20657;-49
2022/01/29 08:02:29;;;;;;;42.63;20.40;;;3.80;99.90;;;;;;5206268;28;20206;-48
2022/01/29 08:04:59;;;;;;;31.53;17.13;;;3.70;99.90;;;;;;5206070;28;20212;-50
2022/01/29 08:07:30;;;;;;;33.00;18.50;;;3.80;99.90;;;;;;5204517;28;20199;-48
2022/01/29 08:10:00;;;;;;;32.47;17.10;;;3.80;99.90;;;;;;5206563;28;20235;-50
2022/01/29 08:12:31;;;;;;;43.97;17.97;;;3.90;99.90;;;;;;5206155;28;20331;-48
2022/01/29 08:15:04;;;;;;;35.10;19.00;;;3.90;99.90;;;;;;5205480;28;20287;-49
2022/01/29 08:17:35;;;;;;;42.07;19.30;;;3.90;99.90;;;;;;5204899;28;20187;-50
2022/01/29 08:20:06;;;;;;;32.17;16.43;;;3.80;99.90;;;;;;5203007;28;20455;-50
2022/01/29 08:22:36;;;;;;;36.87;17.20;;;3.90;99.90;;;;;;5182096;28;20215;-51
2022/01/29 08:25:07;;;;;;;28.77;15.70;;;3.90;99.90;;;;;;5201131;28;20613;-49
2022/01/29 08:27:37;;;;;;;45.23;20.40;;;3.90;99.90;;;;;;5188479;28;20188;-49
2022/01/29 08:30:08;;;;;;;37.30;18.47;;;4.00;99.90;;;;;;5203038;28;20187;-49
2022/01/29 08:32:42;;;;;;;45.63;19.47;;;4.00;99.90;;;;;;5201289;28;20192;-49
2022/01/29 08:35:15;;;;;;;47.13;21.07;;;4.00;99.90;;;;;;5202453;28;20373;-49
2022/01/29 08:37:45;;;;;;;30.20;13.30;;;4.00;99.90;;;;;;5206301;28;20422;-50
2022/01/29 08:40:16;;;;;;;42.13;20.97;;;4.00;99.90;;;;;;5204455;28;20930;-49
2022/01/29 08:42:47;;;;;;;25.97;14.50;;;4.00;99.90;;;;;;5204297;28;20197;-49
2022/01/29 08:45:17;;;;;;;39.33;18.90;;;4.00;99.90;;;;;;5203516;28;20224;-50
2022/01/29 08:47:48;;;;;;;32.63;16.27;;;4.10;99.90;;;;;;5204515;28;20203;-49
2022/01/29 08:50:18;;;;;;;25.80;15.17;;;4.10;99.90;;;;;;5203755;28;20195;-50
2022/01/29 08:52:49;;;;;;;42.60;19.33;;;4.20;99.90;;;;;;5199022;28;20189;-49
2022/01/29 08:55:19;;;;;;;27.33;14.93;;;4.20;99.90;;;;;;5201297;28;20207;-48
2022/01/29 08:57:50;;;;;;;25.33;15.50;;;4.30;99.90;;;;;;5203630;28;20187;-49
2022/01/29 09:00:21;;;;;;;27.67;15.00;;;4.30;99.90;;;;;;5200067;28;20183;-48
2022/01/29 09:02:51;;;;;;;19.83;14.33;;;4.30;99.90;;;;;;5199793;28;20199;-50
2022/01/29 09:05:22;;;;;;;35.43;17.87;;;4.40;99.90;;;;;;5202854;28;20631;-48
2022/01/29 09:07:52;;;;;;;49.77;22.43;;;4.40;99.90;;;;;;5205828;28;20251;-50
2022/01/29 09:10:23;;;;;;;26.07;15.50;;;4.40;99.90;;;;;;5202721;28;20248;-49
2022/01/29 09:12:54;;;;;;;30.07;16.27;;;4.50;99.90;;;;;;5205832;28;20187;-49
2022/01/29 09:15:24;;;;;;;31.87;17.93;;;4.50;99.90;;;;;;5209587;28;20201;-50
2022/01/29 09:17:55;;;;;;;35.07;18.43;;;4.50;99.90;;;;;;5207003;28;20637;-50
2022/01/29 09:20:26;;;;;;;42.43;19.57;;;4.60;99.90;;;;;;5205760;28;20296;-49
2022/01/29 09:22:57;;;;;;;31.63;16.40;;;4.60;99.90;;;;;;5209188;28;20252;-50
2022/01/29 09:25:28;;;;;;;32.60;16.40;;;4.70;99.90;;;;;;5206927;28;20465;-50
2022/01/29 09:27:59;;;;;;;27.27;16.70;;;4.80;99.90;;;;;;5207533;28;20260;-49
2022/01/29 09:30:30;;;;;;;28.90;17.17;;;4.80;99.90;;;;;;5204818;28;20186;-49
2022/01/29 09:33:01;;;;;;;32.73;18.33;;;4.80;99.90;;;;;;5209600;28;20178;-51
2022/01/29 09:35:32;;;;;;;45.63;21.07;;;4.80;99.90;;;;;;5206564;28;20466;-50
2022/01/29 09:38:03;;;;;;;38.97;20.80;;;4.80;99.90;;;;;;5209321;28;20600;-49
2022/01/29 09:40:34;;;;;;;44.23;21.73;;;4.90;99.90;;;;;;5205648;28;20196;-50
2022/01/29 09:43:08;;;;;;;31.90;16.93;;;5.00;99.90;;;;;;5204489;28;21043;-50
2022/01/29 09:45:39;;;;;;;36.00;19.60;;;5.00;99.90;;;;;;5205696;28;20478;-49
2022/01/29 09:48:10;;;;;;;43.93;20.93;;;5.00;99.90;;;;;;5205459;28;20436;-49
2022/01/29 09:50:41;;;;;;;31.60;17.57;;;5.00;99.90;;;;;;5204429;28;20560;-48
2022/01/29 09:53:11;;;;;;;45.73;21.47;;;5.00;99.90;;;;;;5208461;28;20205;-52
2022/01/29 09:55:43;;;;;;;55.00;24.10;;;5.10;99.90;;;;;;5208735;28;20288;-50
2022/01/29 09:58:14;;;;;;;37.77;21.17;;;5.20;99.90;;;;;;5204167;28;20258;-49
2022/01/29 10:00:45;;;;;;;55.97;22.60;;;5.30;99.90;;;;;;5207580;28;20539;-50
2022/01/29 10:03:19;;;;;;;36.63;20.77;;;5.30;99.90;;;;;;5206303;28;20457;-50
2022/01/29 10:05:51;;;;;;;40.37;21.87;;;5.50;99.90;;;;;;5204421;28;20265;-50
2022/01/29 10:08:23;;;;;;;41.53;23.10;;;5.40;99.90;;;;;;5206131;28;20429;-50
2022/01/29 10:10:59;;;;;;;47.07;24.50;;;5.40;99.90;;;;;;5192676;28;20467;-50
2022/01/29 10:13:34;;;;;;;50.23;23.73;;;5.50;99.90;;;;;;5202642;28;20480;-49
2022/01/29 10:16:25;;;;;;;43.70;22.80;;;5.50;99.90;;;;;;5203182;28;20447;-50
2022/01/29 10:19:08;;;;;;;57.10;25.73;;;5.50;99.90;;;;;;5201059;28;20453;-49
2022/01/29 10:21:46;;;;;;;44.10;23.03;;;5.60;99.90;;;;;;5207206;28;20445;-50
2022/01/29 10:24:19;;;;;;;62.73;27.27;;;5.60;99.90;;;;;;5202016;28;21051;-51
2022/01/29 10:26:51;;;;;;;51.37;24.17;;;5.70;99.90;;;;;;5207647;28;20430;-49
2022/01/29 10:29:23;;;;;;;50.13;24.80;;;5.70;99.90;;;;;;5205785;28;20477;-51
2022/01/29 10:31:56;;;;;;;58.50;27.00;;;5.80;99.90;;;;;;5204632;28;20446;-49
2022/01/29 10:34:29;;;;;;;45.47;24.20;;;5.70;99.90;;;;;;5206284;28;20460;-50
2022/01/29 10:37:21;;;;;;;44.73;23.80;;;5.80;99.90;;;;;;5204966;28;20498;-49
2022/01/29 10:40:00;;;;;;;42.57;23.70;;;5.90;99.90;;;;;;5205526;28;20478;-49
2022/01/29 10:42:38;;;;;;;48.70;23.27;;;5.90;99.90;;;;;;5205138;28;20440;-48
2022/01/29 10:45:09;;;;;;;48.67;23.97;;;5.90;99.90;;;;;;5203090;28;20999;-50
2022/01/29 10:47:55;;;;;;;48.37;23.57;;;5.90;99.90;;;;;;5204509;28;20453;-48
2022/01/29 10:50:27;;;;;;;46.13;24.43;;;5.90;99.90;;;;;;5201817;28;20433;-50
2022/01/29 10:53:18;;;;;;;46.23;24.43;;;5.90;99.90;;;;;;5205430;28;20512;-50
2022/01/29 10:56:03;;;;;;;41.83;23.70;;;6.00;99.90;;;;;;5198349;28;20549;-48
2022/01/29 10:58:43;;;;;;;48.93;25.30;;;6.00;99.90;;;;;;5203249;28;20491;-49
2022/01/29 11:01:15;;;;;;;55.00;25.03;;;6.10;99.90;;;;;;5206204;28;20497;-49
2022/01/29 11:03:46;;;;;;;49.90;25.93;;;6.00;99.90;;;;;;5204934;28;20907;-49
2022/01/29 11:06:19;;;;;;;49.23;24.50;;;6.10;99.90;;;;;;5204128;28;20496;-49
2022/01/29 11:08:51;;;;;;;48.70;23.60;;;6.00;99.90;;;;;;5202665;28;20184;-49
2022/01/29 11:11:24;;;;;;;43.20;20.83;;;6.10;99.90;;;;;;5198753;28;20460;-49
2022/01/29 11:13:54;;;;;;;56.73;27.60;;;6.10;99.90;;;;;;5208273;28;20523;-50
2022/01/29 11:16:25;;;;;;;59.77;26.37;;;6.20;99.90;;;;;;5204147;28;20442;-50
2022/01/29 11:18:57;;;;;;;51.13;25.50;;;6.20;99.90;;;;;;5207468;28;20183;-49
2022/01/29 11:21:28;;;;;;;40.20;22.10;;;6.20;99.90;;;;;;5205989;28;20189;-51
2022/01/29 11:24:00;;;;;;;45.60;22.50;;;6.20;99.90;;;;;;5196795;28;20440;-49
2022/01/29 11:26:31;;;;;;;36.50;21.77;;;6.20;99.90;;;;;;5205266;28;20448;-49
2022/01/29 11:29:28;;;;;;;49.17;24.10;;;6.30;99.90;;;;;;5206132;28;20520;-50
2022/01/29 11:32:21;;;;;;;55.00;24.27;;;6.30;99.90;;;;;;5193018;28;20651;-50
2022/01/29 11:35:28;;;;;;;40.77;23.43;;;6.20;99.90;;;;;;5206077;28;20450;-50
2022/01/29 11:38:02;;;;;;;34.53;20.13;;;6.30;99.90;;;;;;5202455;28;20523;-49
2022/01/29 11:40:34;;;;;;;37.00;20.83;;;6.40;99.90;;;;;;5204942;28;20906;-50
2022/01/29 11:43:14;;;;;;;41.37;22.53;;;6.40;99.90;;;;;;5202929;28;20446;-50
2022/01/29 11:46:03;;;;;;;55.90;28.80;;;6.40;99.90;;;;;;5204369;28;20476;-51
2022/01/29 11:48:37;;;;;;;43.70;22.10;;;6.50;99.90;;;;;;5206750;28;20434;-52
2022/01/29 11:51:34;;;;;;;40.70;21.30;;;6.50;99.90;;;;;;5191756;28;20411;-51
2022/01/29 11:54:05;;;;;;;43.37;21.20;;;6.50;99.90;;;;;;5193974;28;20465;-49
2022/01/29 11:56:37;;;;;;;44.87;22.47;;;6.50;99.90;;;;;;5202355;28;20438;-49
2022/01/29 11:59:20;;;;;;;32.03;19.97;;;6.50;99.90;;;;;;5203736;28;20280;-49
2022/01/29 12:02:00;;;;;;;42.33;22.73;;;6.50;99.90;;;;;;5202934;28;20804;-49
2022/01/29 12:04:51;;;;;;;36.77;21.23;;;6.60;99.90;;;;;;5219566;23;20489;-52
2022/01/29 12:07:31;;;;;;;36.57;18.50;;;6.60;99.90;;;;;;5181819;28;20449;-51
2022/01/29 12:10:14;;;;;;;38.43;21.83;;;6.60;99.90;;;;;;5204488;28;20469;-49
2022/01/29 12:13:12;;;;;;;40.67;20.63;;;6.60;99.90;;;;;;5182097;28;20426;-50
2022/01/29 12:15:43;;;;;;;34.50;19.13;;;6.60;99.90;;;;;;5190302;28;20474;-51
2022/01/29 12:18:25;;;;;;;43.30;20.40;;;6.60;99.90;;;;;;5167385;28;20450;-51
2022/01/29 12:20:56;;;;;;;37.87;19.90;;;6.60;99.90;;;;;;5151464;28;20188;-50
2022/01/29 12:23:26;;;;;;;33.60;19.10;;;6.70;99.90;;;;;;5167064;28;20836;-50
2022/01/29 12:25:59;;;;;;;39.80;17.93;;;6.70;99.90;;;;;;5182161;28;20819;-52
2022/01/29 12:28:30;;;;;;;33.03;17.43;;;6.60;99.90;;;;;;5167484;28;20226;-51
2022/01/29 12:31:00;;;;;;;43.10;20.90;;;6.70;99.90;;;;;;5185345;28;20435;-50
2022/01/29 12:33:32;;;;;;;29.73;15.93;;;6.70;99.90;;;;;;5182694;28;20188;-48
2022/01/29 12:36:07;;;;;;;39.87;18.77;;;6.70;99.90;;;;;;5179947;28;20219;-48
2022/01/29 12:38:41;;;;;;;37.70;18.17;;;6.70;99.90;;;;;;5186347;28;20438;-47
2022/01/29 12:41:24;;;;;;;27.20;14.47;;;6.70;99.90;;;;;;5183009;28;20438;-50
2022/01/29 12:44:01;;;;;;;34.17;17.47;;;6.70;99.90;;;;;;5182268;28;20515;-49
2022/01/29 12:46:32;;;;;;;35.47;19.73;;;6.80;99.90;;;;;;5183065;28;20439;-48
2022/01/29 12:49:11;;;;;;;41.73;19.17;;;6.80;99.90;;;;;;5164531;28;20435;-51
2022/01/29 12:51:54;;;;;;;43.93;18.83;;;6.70;99.90;;;;;;5167857;28;20180;-51
2022/01/29 12:54:28;;;;;;;36.80;17.67;;;6.80;99.90;;;;;;5171450;28;20463;-50
2022/01/29 12:57:00;;;;;;;35.47;16.90;;;6.90;99.90;;;;;;5154191;28;20522;-50
2022/01/29 12:59:34;;;;;;;30.87;15.67;;;6.90;99.90;;;;;;5182186;28;20806;-51
2022/01/29 13:02:04;;;;;;;36.30;15.93;;;6.90;99.90;;;;;;5163061;28;20439;-49
2022/01/29 13:04:35;;;;;;;37.23;19.30;;;7.10;99.90;;;;;;5183029;28;20997;-50
2022/01/29 13:07:07;;;;;;;30.23;15.50;;;7.00;99.90;;;;;;5183676;28;20262;-49
2022/01/29 13:09:38;;;;;;;35.80;17.60;;;7.00;99.90;;;;;;5181445;28;20227;-51
2022/01/29 13:12:12;;;;;;;29.07;14.83;;;7.00;99.90;;;;;;5165195;28;20463;-49
2022/01/29 13:14:42;;;;;;;22.57;13.53;;;7.00;99.90;;;;;;5156339;28;20279;-50
2022/01/29 13:17:13;;;;;;;31.60;17.30;;;7.10;99.90;;;;;;5179832;28;20945;-50
2022/01/29 13:19:44;;;;;;;41.67;15.40;;;7.00;99.90;;;;;;5180027;28;20180;-51
2022/01/29 13:22:15;;;;;;;22.93;12.07;;;7.10;99.90;;;;;;5164386;28;20188;-51
2022/01/29 13:24:49;;;;;;;26.03;11.93;;;7.20;99.90;;;;;;5152143;28;20501;-49